Hauptseite
METAR-TAF:

METAR-TAF

Flughäfen :

Cambridge, England

Breite: 52-12N, Länge: 000-11E, Höhe: 15 m

Beobachtung

Neuester Wetterbericht von vor 2 Stunden und 10 Minuten, um 16:50 UTC
Wind 6 kt aus Süd/Südwest
Temperatur 27°C
Luftfeuchtigkeit 54%
Luftdruck 1017 hPa
Sichtweite 10 km oder mehr
Aufgelockert bewölkt in der Höhe von 4000 ft

METAR: EGSC 061650Z 20006KT 9999 SCT040 27/17 Q1017

Zeit: 20:00 (19:00 UTC)

Prognose

Neuester Wetterbericht von vor 4 Stunden und 49 Minuten, um 14:11 UTC
Gültige Prognose vom 06 um 15 UTC bis 06 um 19 UTC
Wind 9 kt aus Süd/Südwest
Sichtweite 10 km oder mehr
Aufgelockert bewölkt in der Höhe von 3000 ft

TAF: EGSC 061411Z 0615/0619 20009KT 9999 SCT030

Wetterbeobachtungen und Prognosen von mehr als 4000 Flughäfen (METAR und TAF Bericht).

Die verfügbaren Stationen werden durch gelbe und rote Markierungen auf der Karte dargestellt.

Führen Sie die Maus auf sie, um den Namen der Station zu sehen.

Darauf klicken, um die Beobachtung von Wetterbeobachtungen und Prognosen zu sehen.

Um die Karte zu ändern : klicken Sie auf den grünen Tasten mit einem schwarzen Kreuz Zum Vergrößern, auf den grünen Button mit einem Gedankenstrich zu verkleinern, oder auf die grünen Pfeile für benachbarte Karten.


METAR-TAF: